createdAt,value
2022-09-01T07:04:39.362Z,15.80
2022-09-01T07:10:18.303Z,16.00
2022-09-01T07:13:05.424Z,16.00
2022-09-01T07:18:27.179Z,16.30
2022-09-01T07:21:38.776Z,16.30
2022-09-01T07:24:06.025Z,16.40
2022-09-01T07:26:30.214Z,16.50
2022-09-01T07:29:01.375Z,16.50
2022-09-01T07:39:53.200Z,16.80
2022-09-01T07:45:26.082Z,16.80
2022-09-01T07:47:53.903Z,16.90
2022-09-01T07:53:12.576Z,17.00
2022-09-01T07:55:43.984Z,17.20
2022-09-01T07:58:11.870Z,17.30
2022-09-01T08:00:40.256Z,17.40
2022-09-01T08:03:07.026Z,17.30
2022-09-01T08:05:34.044Z,17.40
2022-09-01T08:08:01.208Z,17.70
2022-09-01T08:10:28.299Z,17.70
2022-09-01T08:12:56.751Z,17.70
2022-09-01T08:15:40.386Z,17.80
2022-09-01T08:18:08.111Z,17.80
2022-09-01T08:20:39.430Z,17.90
2022-09-01T08:23:06.731Z,17.90
2022-09-01T08:25:36.313Z,18.10
2022-09-01T08:28:03.388Z,18.20
2022-09-01T08:30:32.523Z,18.30
2022-09-01T08:33:10.241Z,18.50
2022-09-01T08:35:39.934Z,18.60
2022-09-01T08:38:06.879Z,18.80
2022-09-01T08:40:34.319Z,18.90
2022-09-01T08:43:16.221Z,18.70
2022-09-01T08:45:49.221Z,18.70
2022-09-01T08:51:36.822Z,18.90
2022-09-01T08:54:29.944Z,18.90
2022-09-01T08:57:02.311Z,19.00
2022-09-01T08:59:29.046Z,19.20
2022-09-01T09:02:13.490Z,19.50
2022-09-01T09:05:15.192Z,19.50
2022-09-01T09:08:06.466Z,19.70
2022-09-01T09:10:43.652Z,19.40
2022-09-01T09:13:23.058Z,19.50
2022-09-01T09:16:08.476Z,19.70
2022-09-01T09:18:58.037Z,20.00
2022-09-01T09:21:30.266Z,20.40
2022-09-01T09:24:36.967Z,20.30
2022-09-01T09:27:07.092Z,20.30
2022-09-01T09:29:36.669Z,20.70
2022-09-01T09:32:22.672Z,20.60
2022-09-01T09:34:50.801Z,20.30
2022-09-01T09:37:25.489Z,20.40
2022-09-01T09:40:27.305Z,20.60
2022-09-01T09:42:56.840Z,20.70
2022-09-01T09:45:27.454Z,20.70
2022-09-01T09:47:56.639Z,20.60
2022-09-01T09:50:29.988Z,21.20
2022-09-01T09:53:18.629Z,21.00
2022-09-01T09:56:19.705Z,20.70
2022-09-01T09:58:48.903Z,20.80
2022-09-01T10:01:24.296Z,21.10
2022-09-01T10:03:54.090Z,21.40
2022-09-01T10:06:42.096Z,21.80
2022-09-01T10:09:37.860Z,21.50
2022-09-01T10:12:05.647Z,21.20
2022-09-01T10:14:53.165Z,21.20
2022-09-01T10:17:31.129Z,21.70
2022-09-01T10:20:08.125Z,22.30
2022-09-01T10:22:39.592Z,22.10
2022-09-01T10:25:11.284Z,21.80
2022-09-01T10:27:41.767Z,22.00
2022-09-01T10:30:20.063Z,22.20
2022-09-01T10:32:56.053Z,21.60
2022-09-01T10:35:32.131Z,21.80
2022-09-01T10:38:06.921Z,22.20
2022-09-01T10:40:43.717Z,22.60
2022-09-01T10:43:37.441Z,22.20
2022-09-01T10:46:24.842Z,22.00
2022-09-01T10:48:56.232Z,21.30
2022-09-01T10:51:28.818Z,21.40
2022-09-01T10:54:05.629Z,21.60
2022-09-01T10:56:52.301Z,21.50
2022-09-01T10:59:41.936Z,21.90
2022-09-01T11:05:00.522Z,21.80
2022-09-01T11:08:01.208Z,21.70
2022-09-01T11:10:47.561Z,21.50
2022-09-01T11:13:41.365Z,21.40
2022-09-01T11:16:46.466Z,21.10
2022-09-01T11:19:37.535Z,21.20
2022-09-01T11:22:14.523Z,21.00
2022-09-01T11:24:41.628Z,21.00
2022-09-01T11:27:30.282Z,21.10
2022-09-01T11:30:02.751Z,21.70
2022-09-01T11:32:35.867Z,21.70
2022-09-01T11:35:07.584Z,21.50
2022-09-01T11:37:34.343Z,21.20
2022-09-01T11:40:04.785Z,21.20
2022-09-01T11:42:39.682Z,21.10
2022-09-01T11:45:21.734Z,21.20
2022-09-01T11:47:52.851Z,21.20
2022-09-01T11:50:23.028Z,21.70
2022-09-01T11:53:12.346Z,22.10
2022-09-01T11:55:44.711Z,22.40
2022-09-01T11:58:34.380Z,22.50
2022-09-01T12:01:20.469Z,22.60
2022-09-01T12:03:48.617Z,22.50
2022-09-01T12:06:25.657Z,22.30
2022-09-01T12:09:02.144Z,22.00
2022-09-01T12:11:34.995Z,21.60
2022-09-01T12:14:11.385Z,21.30
2022-09-01T12:16:42.517Z,21.20
2022-09-01T12:19:23.650Z,21.10
2022-09-01T12:22:00.587Z,20.90
2022-09-01T12:24:31.557Z,20.80
2022-09-01T12:26:59.025Z,20.80
2022-09-01T12:29:28.926Z,20.70
2022-09-01T12:31:59.881Z,20.80
2022-09-01T12:34:34.352Z,20.90
2022-09-01T12:37:12.492Z,20.90
2022-09-01T12:39:48.359Z,21.10
2022-09-01T12:42:30.016Z,21.20
2022-09-01T12:45:10.627Z,21.10
2022-09-01T12:47:37.550Z,21.00
2022-09-01T12:50:29.677Z,20.80
2022-09-01T12:53:13.553Z,21.00
2022-09-01T12:55:47.838Z,21.00
2022-09-01T12:58:23.313Z,21.00
2022-09-01T13:01:03.186Z,21.10
2022-09-01T13:03:32.158Z,21.20
2022-09-01T13:06:03.819Z,21.80
2022-09-01T13:08:35.106Z,22.50
2022-09-01T13:11:08.098Z,22.90
2022-09-01T13:13:37.771Z,22.90
2022-09-01T13:16:12.683Z,22.90
2022-09-01T13:21:30.396Z,23.50
2022-09-01T13:23:57.446Z,23.80
2022-09-01T13:26:24.343Z,23.80
2022-09-01T13:28:51.532Z,23.70
2022-09-01T13:31:29.100Z,22.90
2022-09-01T13:34:22.111Z,22.60
2022-09-01T13:36:45.306Z,22.80
2022-09-01T13:39:15.759Z,22.70
2022-09-01T13:41:43.104Z,22.70
2022-09-01T13:44:10.413Z,22.40
2022-09-01T13:46:59.042Z,22.20
2022-09-01T13:52:10.587Z,22.00
2022-09-01T13:54:37.245Z,22.00
2022-09-01T13:57:04.309Z,22.00
2022-09-01T13:59:32.115Z,22.00
2022-09-01T14:01:58.731Z,21.90
2022-09-01T14:04:25.398Z,21.90
2022-09-01T14:06:52.076Z,21.90
2022-09-01T14:09:18.668Z,21.90
2022-09-01T14:11:45.276Z,21.90
2022-09-01T14:14:11.938Z,21.90
2022-09-01T14:16:38.677Z,21.90
2022-09-01T14:19:05.860Z,21.90
2022-09-01T14:21:32.750Z,22.00
2022-09-01T14:24:00.211Z,22.00
2022-09-01T14:26:28.124Z,22.00
2022-09-01T14:28:55.091Z,22.00
2022-09-01T14:31:21.963Z,22.10
2022-09-01T14:33:49.608Z,22.30
2022-09-01T14:36:20.089Z,22.50
2022-09-01T14:38:46.705Z,22.50
2022-09-01T14:41:15.138Z,22.60
2022-09-01T14:43:43.042Z,22.90
2022-09-01T14:46:12.161Z,22.80
2022-09-01T14:48:40.523Z,22.80
2022-09-01T14:51:08.859Z,22.90
2022-09-01T14:53:36.028Z,22.90
2022-09-01T14:56:03.255Z,23.00
2022-09-01T14:58:30.041Z,23.30
2022-09-01T15:01:03.602Z,23.90
2022-09-01T15:03:34.573Z,24.50
2022-09-01T15:06:01.259Z,24.90
2022-09-01T15:08:27.868Z,24.90
2022-09-01T15:10:54.466Z,25.10
2022-09-01T15:13:21.198Z,25.60
2022-09-01T15:15:47.906Z,26.10
2022-09-01T15:18:14.594Z,26.00
2022-09-01T15:20:45.147Z,26.10
2022-09-01T15:23:18.265Z,26.60
2022-09-01T15:25:45.145Z,27.00
2022-09-01T15:28:12.124Z,26.80
2022-09-01T15:30:39.819Z,28.20
2022-09-01T15:33:09.015Z,29.50
2022-09-01T15:35:37.842Z,29.90
2022-09-01T15:38:05.245Z,29.30
2022-09-01T15:40:32.666Z,28.40
2022-09-01T15:43:00.105Z,25.60
2022-09-01T15:45:28.911Z,24.60
2022-09-01T15:47:55.628Z,23.80
2022-09-01T15:50:27.393Z,23.80
2022-09-01T15:53:00.804Z,23.80
2022-09-01T15:55:41.975Z,24.00
2022-09-01T15:58:10.559Z,24.10
2022-09-01T16:00:37.246Z,23.70
2022-09-01T16:03:06.013Z,23.50
2022-09-01T16:05:35.724Z,23.50
2022-09-01T16:08:08.285Z,23.30
2022-09-01T16:10:36.582Z,23.30
2022-09-01T16:13:04.158Z,23.20
2022-09-01T16:15:31.493Z,23.00
2022-09-01T16:18:06.451Z,22.70
2022-09-01T16:20:37.378Z,22.50
2022-09-01T16:23:19.332Z,22.20
2022-09-01T16:25:46.892Z,22.00
2022-09-01T16:28:25.158Z,21.90
2022-09-01T16:30:59.279Z,21.80
2022-09-01T16:33:25.943Z,21.80
2022-09-01T16:36:11.011Z,21.70
2022-09-01T16:38:58.219Z,21.60
2022-09-01T16:41:48.240Z,21.40
2022-09-01T16:44:45.463Z,21.30
2022-09-01T16:47:40.462Z,21.20
2022-09-01T16:50:32.524Z,21.10
2022-09-01T16:53:15.487Z,21.20
2022-09-01T16:56:09.990Z,21.30
2022-09-01T16:59:11.938Z,21.40
2022-09-01T17:01:56.541Z,21.30
2022-09-01T17:04:42.145Z,21.40
2022-09-01T17:07:24.260Z,21.40
2022-09-01T17:10:27.551Z,21.50
2022-09-01T17:12:56.226Z,21.60
2022-09-01T17:15:40.709Z,21.60
2022-09-01T17:18:32.137Z,21.50
2022-09-01T17:21:12.756Z,21.30
2022-09-01T17:23:55.444Z,20.90
2022-09-01T17:26:27.189Z,20.80
2022-09-01T17:29:02.588Z,20.70
2022-09-01T17:31:47.207Z,20.60
2022-09-01T17:34:29.991Z,20.40
2022-09-01T17:37:28.884Z,20.10
2022-09-01T17:40:08.348Z,19.90
2022-09-01T17:42:56.688Z,19.90
2022-09-01T17:45:36.056Z,19.70
2022-09-01T17:48:27.013Z,19.70
2022-09-01T17:51:25.811Z,19.60
2022-09-01T17:54:25.112Z,19.50
2022-09-01T17:57:00.551Z,19.30
2022-09-01T18:00:03.545Z,19.30
2022-09-01T18:02:51.862Z,19.20
2022-09-01T18:05:24.541Z,19.10
2022-09-01T18:08:18.827Z,19.10
2022-09-01T18:10:56.341Z,19.00
2022-09-01T18:13:54.203Z,18.90
2022-09-01T18:16:34.693Z,18.90
2022-09-01T18:19:08.827Z,18.80
2022-09-01T18:21:40.046Z,18.80
2022-09-01T18:24:28.703Z,18.80
2022-09-01T18:26:55.358Z,18.70
2022-09-01T18:29:25.017Z,18.70
2022-09-01T18:32:18.449Z,18.60
2022-09-01T18:35:02.420Z,18.60
2022-09-01T18:37:45.998Z,18.50
2022-09-01T18:40:21.956Z,18.50
2022-09-01T18:43:09.234Z,18.40
2022-09-01T18:45:49.655Z,18.40
2022-09-01T18:48:45.494Z,18.30
2022-09-01T18:51:18.627Z,18.30
2022-09-01T18:53:56.538Z,18.20
2022-09-01T18:56:38.003Z,18.20
2022-09-01T18:59:12.240Z,18.10
2022-09-01T19:02:06.564Z,18.10
2022-09-01T19:04:42.240Z,18.00
2022-09-01T19:07:27.646Z,18.00
2022-09-01T19:10:00.911Z,18.00
2022-09-01T19:12:46.018Z,17.90
2022-09-01T19:15:27.229Z,17.90
2022-09-01T19:18:06.981Z,17.80
2022-09-01T19:20:45.394Z,17.80
2022-09-01T19:23:46.157Z,17.80
2022-09-01T19:26:21.353Z,17.70
2022-09-01T19:29:16.450Z,17.70
2022-09-01T19:31:53.249Z,17.70
2022-09-01T19:34:36.418Z,17.60
2022-09-01T19:37:05.023Z,17.60
2022-09-01T19:39:39.469Z,17.50
2022-09-01T19:42:33.825Z,17.50
2022-09-01T19:45:25.409Z,17.50
2022-09-01T19:48:07.931Z,17.40
2022-09-01T19:50:54.963Z,17.40
2022-09-01T19:53:52.416Z,17.40
2022-09-01T19:56:34.235Z,17.40
2022-09-01T19:59:14.782Z,17.40
2022-09-01T20:01:55.577Z,17.30
2022-09-01T20:04:41.439Z,17.30
2022-09-01T20:07:31.302Z,17.30
2022-09-01T20:10:21.656Z,17.20
2022-09-01T20:13:14.603Z,17.20
2022-09-01T20:15:56.562Z,17.20
2022-09-01T20:18:31.902Z,17.10
2022-09-01T20:21:03.681Z,17.10
2022-09-01T20:23:42.683Z,17.10
2022-09-01T20:26:19.213Z,17.00
2022-09-01T20:29:08.409Z,17.00
2022-09-01T20:31:45.383Z,17.00
2022-09-01T20:34:25.212Z,17.00
2022-09-01T20:37:18.350Z,17.00
2022-09-01T20:40:00.492Z,16.90
2022-09-01T20:42:43.605Z,16.90
2022-09-01T20:45:25.954Z,16.90
2022-09-01T20:47:59.082Z,16.80
2022-09-01T20:50:43.801Z,16.70
2022-09-01T20:53:43.119Z,16.70
2022-09-01T20:57:06.150Z,16.70
2022-09-01T20:59:47.651Z,16.70
2022-09-01T21:02:33.134Z,16.70
2022-09-01T21:05:38.387Z,16.60
2022-09-01T21:08:34.375Z,16.60
2022-09-01T21:11:23.324Z,16.50
2022-09-01T21:14:06.880Z,16.50
2022-09-01T21:16:47.020Z,16.40
2022-09-01T21:19:45.502Z,16.40
2022-09-01T21:22:18.459Z,16.40
2022-09-01T21:24:47.864Z,16.40
2022-09-01T21:27:19.106Z,16.40
2022-09-01T21:29:59.631Z,16.30
2022-09-01T21:32:29.082Z,16.30
2022-09-01T21:34:56.436Z,16.20
2022-09-01T21:37:24.256Z,16.20
2022-09-01T21:39:53.000Z,16.10
2022-09-01T21:42:23.870Z,16.10
2022-09-01T21:44:54.471Z,16.10
2022-09-01T21:47:21.731Z,16.10
2022-09-01T21:49:48.454Z,16.00
2022-09-01T21:52:15.059Z,15.90
2022-09-01T21:54:41.687Z,16.00
2022-09-01T21:57:08.659Z,15.90
2022-09-01T21:59:35.452Z,15.90
2022-09-01T22:02:02.256Z,15.90
2022-09-01T22:04:28.968Z,15.90
2022-09-01T22:06:55.575Z,15.90
2022-09-01T22:09:22.258Z,15.80
2022-09-01T22:11:50.902Z,15.80
2022-09-01T22:14:18.743Z,15.80
2022-09-01T22:16:45.845Z,15.80
